Time,TemperatureF,DewpointF,PressureIn,WindDirection,WindDirectionDegrees,WindSpeedMPH,WindSpeedGustMPH,Humidity,HourlyPrecipIn,Conditions,Clouds,dailyrainin,SoftwareType,DateUTC
2013-01-12 00:09:00,15.4,5.1,29.80,WSW,244,0.0,3.0,63,0.00,,---,0.00,VWS V14.00,2013-01-12 07:09:00,
2013-01-12 00:14:00,16.5,4.7,29.78,SSE,168,1.0,2.0,59,0.00,,---,0.00,VWS V14.00,2013-01-12 07:14:00,
2013-01-12 00:24:00,16.5,2.0,29.78,North,0,2.0,3.0,52,0.00,,---,0.00,VWS V14.00,2013-01-12 07:24:00,
2013-01-12 00:29:00,14.1,0.5,29.80,NNW,346,4.0,5.0,54,0.00,,---,0.00,VWS V14.00,2013-01-12 07:29:00,
2013-01-12 00:34:00,11.6,-0.3,29.80,North,10,2.0,4.0,58,0.00,,---,0.00,VWS V14.00,2013-01-12 07:34:00,
2013-01-12 00:39:00,9.7,-1.0,29.80,NNW,344,0.0,3.0,61,0.00,,---,0.00,VWS V14.00,2013-01-12 07:39:00,
2013-01-12 00:44:00,8.6,-1.4,29.84,North,350,2.0,3.0,63,0.00,,---,0.00,VWS V14.00,2013-01-12 07:44:00,
2013-01-12 00:49:00,8.1,-0.9,29.84,North,356,2.0,5.0,66,0.00,,---,0.00,VWS V14.00,2013-01-12 07:49:00,
2013-01-12 00:54:00,8.1,-0.3,29.84,North,3,0.0,3.0,68,0.00,,---,0.00,VWS V14.00,2013-01-12 07:54:00,
2013-01-12 00:59:00,7.9,-0.1,29.87,North,0,0.0,3.0,69,0.00,,---,0.00,VWS V14.00,2013-01-12 07:59:00,
2013-01-12 01:09:00,7.4,0.0,29.87,North,349,3.0,3.0,71,0.00,,---,0.00,VWS V14.00,2013-01-12 08:09:00,
2013-01-12 01:14:00,7.4,0.0,29.92,North,357,3.0,3.0,71,0.00,,---,0.00,VWS V14.00,2013-01-12 08:14:00,
2013-01-12 01:24:00,6.9,-0.2,29.92,NNE,14,2.0,5.0,72,0.00,,---,0.00,VWS V14.00,2013-01-12 08:24:00,
2013-01-12 01:34:00,6.3,-0.5,29.93,North,0,2.0,3.0,73,0.00,,---,0.00,VWS V14.00,2013-01-12 08:34:00,
2013-01-12 01:39:00,6.5,0.0,29.93,North,354,1.0,5.0,74,0.00,,---,0.00,VWS V14.00,2013-01-12 08:39:00,
2013-01-12 01:44:00,6.5,0.0,29.94,NNE,31,1.0,2.0,74,0.00,,---,0.00,VWS V14.00,2013-01-12 08:44:00,
2013-01-12 01:49:00,6.7,0.5,29.94,North,0,1.0,2.0,75,0.00,,---,0.00,VWS V14.00,2013-01-12 08:49:00,
2013-01-12 01:59:00,6.9,0.7,29.95,SSW,205,0.0,2.0,75,0.00,,---,0.00,VWS V14.00,2013-01-12 08:59:00,
2013-01-12 02:04:00,7.0,0.8,29.95,North,0,0.0,1.0,75,0.00,,---,0.00,VWS V14.00,2013-01-12 09:04:00,
2013-01-12 02:09:00,7.0,0.8,29.95,West,270,0.0,1.0,75,0.00,,---,0.00,VWS V14.00,2013-01-12 09:09:00,
2013-01-12 02:19:00,6.9,0.7,29.98,North,0,0.0,1.0,75,0.00,,---,0.00,VWS V14.00,2013-01-12 09:19:00,
2013-01-12 02:29:00,6.7,0.5,29.99,NW,312,0.0,0.0,75,0.00,,---,0.00,VWS V14.00,2013-01-12 09:29:00,
2013-01-12 02:34:00,6.5,0.3,29.99,NW,312,0.0,0.0,75,0.00,,---,0.00,VWS V14.00,2013-01-12 09:34:00,
2013-01-12 02:44:00,6.1,-0.1,29.99,NNW,340,0.0,0.0,75,0.00,,---,0.00,VWS V14.00,2013-01-12 09:44:00,
2013-01-12 02:49:00,6.0,-0.2,29.99,NNW,340,0.0,0.0,75,0.00,,---,0.00,VWS V14.00,2013-01-12 09:49:00,
2013-01-12 02:54:00,5.8,-0.4,29.99,NNW,340,0.0,0.0,75,0.00,,---,0.00,VWS V14.00,2013-01-12 09:54:00,
2013-01-12 02:59:00,5.8,-0.4,29.99,WNW,294,0.0,0.0,75,0.00,,---,0.00,VWS V14.00,2013-01-12 09:59:00,
2013-01-12 03:09:00,5.6,-0.6,29.99,WNW,294,0.0,0.0,75,0.00,,---,0.00,VWS V14.00,2013-01-12 10:09:00,
2013-01-12 03:14:00,5.4,-0.8,30.01,WNW,294,0.0,0.0,75,0.00,,---,0.00,VWS V14.00,2013-01-12 10:14:00,
2013-01-12 03:19:00,5.2,-1.0,30.01,WNW,294,0.0,0.0,75,0.00,,---,0.00,VWS V14.00,2013-01-12 10:19:00,
2013-01-12 03:29:00,4.8,-1.4,30.01,WNW,294,0.0,0.0,75,0.00,,---,0.00,VWS V14.00,2013-01-12 10:29:00,
2013-01-12 03:34:00,4.7,-1.5,30.01,WNW,294,0.0,0.0,75,0.00,,---,0.00,VWS V14.00,2013-01-12 10:34:00,
2013-01-12 03:39:00,4.5,-1.7,30.01,WNW,294,0.0,0.0,75,0.00,,---,0.00,VWS V14.00,2013-01-12 10:39:00,
2013-01-12 03:49:00,3.9,-2.2,30.01,WNW,294,0.0,0.0,75,0.00,,---,0.00,VWS V14.00,2013-01-12 10:49:00,
2013-01-12 03:54:00,3.5,-2.6,30.01,WNW,294,0.0,0.0,75,0.00,,---,0.00,VWS V14.00,2013-01-12 10:54:00,
2013-01-12 03:59:00,3.5,-2.6,30.01,WNW,294,0.0,0.0,75,0.00,,---,0.00,VWS V14.00,2013-01-12 10:59:00,
2013-01-12 04:04:00,3.4,-2.7,30.01,WNW,294,0.0,0.0,75,0.00,,---,0.00,VWS V14.00,2013-01-12 11:04:00,
2013-01-12 04:09:00,3.4,-2.7,30.01,WNW,294,0.0,0.0,75,0.00,,---,0.00,VWS V14.00,2013-01-12 11:09:00,
2013-01-12 04:19:00,3.5,-2.6,30.03,North,1,0.0,1.0,75,0.00,,---,0.00,VWS V14.00,2013-01-12 11:19:00,
2013-01-12 04:24:00,3.7,-2.4,30.03,North,359,0.0,1.0,75,0.00,,---,0.00,VWS V14.00,2013-01-12 11:24:00,
2013-01-12 04:29:00,3.7,-2.4,30.03,North,359,0.0,2.0,75,0.00,,---,0.00,VWS V14.00,2013-01-12 11:29:00,
2013-01-12 04:34:00,3.9,-2.2,30.03,North,359,0.0,1.0,75,0.00,,---,0.00,VWS V14.00,2013-01-12 11:34:00,
2013-01-12 04:44:00,3.5,-2.6,30.03,North,0,0.0,1.0,75,0.00,,---,0.00,VWS V14.00,2013-01-12 11:44:00,
2013-01-12 04:54:00,3.7,-2.4,30.03,North,359,0.0,1.0,75,0.00,,---,0.00,VWS V14.00,2013-01-12 11:54:00,
2013-01-12 04:59:00,3.5,-2.6,30.05,North,0,1.0,1.0,75,0.00,,---,0.00,VWS V14.00,2013-01-12 11:59:00,
2013-01-12 05:04:00,3.5,-2.6,30.05,NNE,18,0.0,2.0,75,0.00,,---,0.00,VWS V14.00,2013-01-12 12:04:00,
2013-01-12 05:09:00,3.7,-2.4,30.05,NNE,28,0.0,2.0,75,0.00,,---,0.00,VWS V14.00,2013-01-12 12:09:00,
2013-01-12 05:19:00,3.7,-2.2,30.07,NNE,21,0.0,0.0,76,0.00,,---,0.00,VWS V14.00,2013-01-12 12:19:00,
2013-01-12 05:24:00,3.7,-2.4,30.07,NNE,24,0.0,2.0,75,0.00,,---,0.00,VWS V14.00,2013-01-12 12:24:00,
2013-01-12 05:29:00,3.5,-2.6,30.08,NNE,18,0.0,1.0,75,0.00,,---,0.00,VWS V14.00,2013-01-12 12:29:00,
2013-01-12 05:34:00,3.4,-2.7,30.08,NNE,18,0.0,0.0,75,0.00,,---,0.00,VWS V14.00,2013-01-12 12:34:00,
2013-01-12 05:39:00,3.4,-2.7,30.08,North,0,0.0,0.0,75,0.00,,---,0.00,VWS V14.00,2013-01-12 12:39:00,
2013-01-12 05:44:00,3.4,-2.7,30.09,North,0,0.0,0.0,75,0.00,,---,0.00,VWS V14.00,2013-01-12 12:44:00,
2013-01-12 05:54:00,3.7,-2.2,30.09,North,359,0.0,0.0,76,0.00,,---,0.00,VWS V14.00,2013-01-12 12:54:00,
2013-01-12 05:59:00,3.7,-2.2,30.09,WSW,257,1.0,2.0,76,0.00,,---,0.00,VWS V14.00,2013-01-12 12:59:00,
2013-01-12 06:04:00,3.7,-2.2,30.09,WSW,257,0.0,1.0,76,0.00,,---,0.00,VWS V14.00,2013-01-12 13:04:00,
2013-01-12 06:14:00,3.7,-2.2,30.10,WSW,257,0.0,1.0,76,0.00,,---,0.00,VWS V14.00,2013-01-12 13:14:00,
2013-01-12 06:19:00,3.7,-2.2,30.10,WSW,257,0.0,0.0,76,0.00,,---,0.00,VWS V14.00,2013-01-12 13:19:00,
2013-01-12 06:24:00,3.5,-2.6,30.10,WSW,257,0.0,0.0,75,0.00,,---,0.00,VWS V14.00,2013-01-12 13:24:00,
2013-01-12 06:34:00,3.2,-2.9,30.11,WSW,257,0.0,0.0,75,0.00,,---,0.00,VWS V14.00,2013-01-12 13:34:00,
2013-01-12 06:39:00,2.8,-3.3,30.11,WSW,257,0.0,0.0,75,0.00,,---,0.00,VWS V14.00,2013-01-12 13:39:00,
2013-01-12 06:44:00,2.6,-3.5,30.12,WSW,257,0.0,0.0,75,0.00,,---,0.00,VWS V14.00,2013-01-12 13:44:00,
2013-01-12 06:54:00,1.5,-4.8,30.12,WSW,257,0.0,0.0,74,0.00,,---,0.00,VWS V14.00,2013-01-12 13:54:00,
2013-01-12 06:59:00,1.1,-5.2,30.15,North,350,0.0,0.0,74,0.00,,---,0.00,VWS V14.00,2013-01-12 13:59:00,
2013-01-12 07:04:00,1.1,-5.0,30.15,North,350,0.0,0.0,75,0.00,,---,0.00,VWS V14.00,2013-01-12 14:04:00,
2013-01-12 07:09:00,1.7,-4.4,30.15,North,350,0.0,0.0,75,0.00,,---,0.00,VWS V14.00,2013-01-12 14:09:00,
2013-01-12 07:19:00,1.8,-4.3,30.16,North,350,0.0,0.0,75,0.00,,---,0.00,VWS V14.00,2013-01-12 14:19:00,
2013-01-12 07:24:00,2.0,-4.1,30.16,North,350,0.0,0.0,75,0.00,,---,0.00,VWS V14.00,2013-01-12 14:24:00,
2013-01-12 07:29:00,2.6,-3.2,30.17,North,350,0.0,0.0,76,0.00,,---,0.00,VWS V14.00,2013-01-12 14:29:00,
2013-01-12 07:34:00,2.8,-3.0,30.17,North,350,0.0,0.0,76,0.00,,---,0.00,VWS V14.00,2013-01-12 14:34:00,
2013-01-12 07:44:00,3.2,-2.6,30.19,North,352,0.0,0.0,76,0.00,,---,0.00,VWS V14.00,2013-01-12 14:44:00,
2013-01-12 07:54:00,3.4,-2.5,30.19,North,350,0.0,0.0,76,0.00,,---,0.00,VWS V14.00,2013-01-12 14:54:00,
2013-01-12 07:59:00,3.9,-2.0,30.18,North,352,0.0,0.0,76,0.00,,---,0.00,VWS V14.00,2013-01-12 14:59:00,
2013-01-12 08:09:00,4.5,-1.4,30.18,North,352,0.0,0.0,76,0.00,,---,0.00,VWS V14.00,2013-01-12 15:09:00,
2013-01-12 08:14:00,4.5,-1.4,30.20,North,352,0.0,0.0,76,0.00,,---,0.00,VWS V14.00,2013-01-12 15:14:00,
2013-01-12 08:19:00,4.7,-1.2,30.20,North,352,0.0,0.0,76,0.00,,---,0.00,VWS V14.00,2013-01-12 15:19:00,
2013-01-12 08:24:00,4.7,-1.2,30.20,North,352,0.0,0.0,76,0.00,,---,0.00,VWS V14.00,2013-01-12 15:24:00,
2013-01-12 08:34:00,5.2,-0.7,30.20,North,352,0.0,0.0,76,0.00,,---,0.00,VWS V14.00,2013-01-12 15:34:00,
2013-01-12 08:39:00,5.4,-0.5,30.20,North,352,0.0,0.0,76,0.00,,---,0.00,VWS V14.00,2013-01-12 15:39:00,
2013-01-12 08:44:00,5.6,-0.3,30.19,North,0,0.0,1.0,76,0.00,,---,0.00,VWS V14.00,2013-01-12 15:44:00,
2013-01-12 08:49:00,5.8,0.2,30.19,North,0,0.0,1.0,77,0.00,,---,0.00,VWS V14.00,2013-01-12 15:49:00,
2013-01-12 08:59:00,6.1,0.2,30.20,North,0,0.0,1.0,76,0.00,,---,0.00,VWS V14.00,2013-01-12 15:59:00,
2013-01-12 09:04:00,6.3,0.6,30.20,NE,42,0.0,1.0,77,0.00,,---,0.00,VWS V14.00,2013-01-12 16:04:00,
2013-01-12 09:09:00,6.3,0.6,30.20,North,3,1.0,2.0,77,0.00,,---,0.00,VWS V14.00,2013-01-12 16:09:00,
2013-01-12 09:14:00,6.3,0.6,30.21,North,1,0.0,1.0,77,0.00,,---,0.00,VWS V14.00,2013-01-12 16:14:00,
2013-01-12 09:19:00,6.5,0.8,30.21,North,1,0.0,0.0,77,0.00,,---,0.00,VWS V14.00,2013-01-12 16:19:00,
2013-01-12 09:24:00,6.9,1.2,30.21,WNW,282,0.0,1.0,77,0.00,,---,0.00,VWS V14.00,2013-01-12 16:24:00,
2013-01-12 09:34:00,7.4,1.7,30.21,SW,236,0.0,0.0,77,0.00,,---,0.00,VWS V14.00,2013-01-12 16:34:00,
2013-01-12 09:39:00,7.6,1.9,30.21,SW,220,0.0,1.0,77,0.00,,---,0.00,VWS V14.00,2013-01-12 16:39:00,
2013-01-12 09:44:00,7.7,2.0,30.20,SW,220,0.0,0.0,77,0.00,,---,0.00,VWS V14.00,2013-01-12 16:44:00,
2013-01-12 09:49:00,7.6,1.9,30.20,West,274,0.0,1.0,77,0.00,,---,0.00,VWS V14.00,2013-01-12 16:49:00,
2013-01-12 09:59:00,7.7,2.0,30.20,NNW,344,0.0,1.0,77,0.00,,---,0.00,VWS V14.00,2013-01-12 16:59:00,
2013-01-12 10:04:00,7.9,2.2,30.20,North,350,0.0,1.0,77,0.00,,---,0.00,VWS V14.00,2013-01-12 17:04:00,
2013-01-12 10:14:00,7.9,2.2,30.20,NNW,343,0.0,0.0,77,0.00,,---,0.00,VWS V14.00,2013-01-12 17:14:00,
2013-01-12 10:24:00,8.4,2.7,30.20,NNW,344,0.0,1.0,77,0.00,,---,0.00,VWS V14.00,2013-01-12 17:24:00,
2013-01-12 10:29:00,8.3,2.6,30.20,NNW,347,0.0,1.0,77,0.00,,---,0.00,VWS V14.00,2013-01-12 17:29:00,
2013-01-12 10:34:00,8.3,2.6,30.20,NNW,347,0.0,0.0,77,0.00,,---,0.00,VWS V14.00,2013-01-12 17:34:00,
2013-01-12 10:39:00,8.4,2.7,30.20,NNW,347,0.0,0.0,77,0.00,,---,0.00,VWS V14.00,2013-01-12 17:39:00,
2013-01-12 10:44:00,9.0,3.3,30.18,North,354,0.0,1.0,77,0.00,,---,0.00,VWS V14.00,2013-01-12 17:44:00,
2013-01-12 10:49:00,9.2,3.5,30.18,North,354,0.0,1.0,77,0.00,,---,0.00,VWS V14.00,2013-01-12 17:49:00,
2013-01-12 10:59:00,9.3,3.6,30.18,North,354,0.0,0.0,77,0.00,,---,0.00,VWS V14.00,2013-01-12 17:59:00,
2013-01-12 11:09:00,9.7,4.0,30.18,North,354,0.0,0.0,77,0.00,,---,0.00,VWS V14.00,2013-01-12 18:09:00,
2013-01-12 11:14:00,10.0,4.2,30.17,ESE,107,0.0,0.0,77,0.00,,---,0.00,VWS V14.00,2013-01-12 18:14:00,
2013-01-12 11:19:00,10.4,4.6,30.17,ESE,107,0.0,0.0,77,0.00,,---,0.00,VWS V14.00,2013-01-12 18:19:00,
2013-01-12 11:24:00,10.5,4.7,30.17,ESE,107,0.0,0.0,77,0.00,,---,0.00,VWS V14.00,2013-01-12 18:24:00,
2013-01-12 11:29:00,10.9,5.1,30.15,SSW,195,0.0,0.0,77,0.00,,---,0.00,VWS V14.00,2013-01-12 18:29:00,
2013-01-12 11:39:00,11.1,5.0,30.15,NE,37,0.0,0.0,76,0.00,,---,0.00,VWS V14.00,2013-01-12 18:39:00,
2013-01-12 11:44:00,10.9,4.8,30.15,NE,41,0.0,0.0,76,0.00,,---,0.00,VWS V14.00,2013-01-12 18:44:00,
2013-01-12 11:49:00,10.9,4.8,30.15,NE,41,0.0,0.0,76,0.00,,---,0.00,VWS V14.00,2013-01-12 18:49:00,
2013-01-12 11:54:00,10.9,4.8,30.15,NE,41,0.0,0.0,76,0.00,,---,0.00,VWS V14.00,2013-01-12 18:54:00,
2013-01-12 11:59:00,11.2,4.8,30.13,ENE,72,0.0,0.0,75,0.00,,---,0.00,VWS V14.00,2013-01-12 18:59:00,
2013-01-12 12:04:00,11.1,4.7,30.13,ENE,75,0.0,0.0,75,0.00,,---,0.00,VWS V14.00,2013-01-12 19:04:00,
2013-01-12 12:09:00,11.2,4.8,30.13,ENE,75,0.0,0.0,75,0.00,,---,0.00,VWS V14.00,2013-01-12 19:09:00,
2013-01-12 12:14:00,11.2,4.8,30.17,ENE,75,0.0,0.0,75,0.00,,---,0.00,VWS V14.00,2013-01-12 19:14:00,
2013-01-12 12:19:00,11.7,5.3,30.17,ESE,123,1.0,2.0,75,0.00,,---,0.00,VWS V14.00,2013-01-12 19:19:00,
2013-01-12 12:24:00,12.1,5.7,30.17,SSW,206,2.0,2.0,75,0.00,,---,0.00,VWS V14.00,2013-01-12 19:24:00,
2013-01-12 12:29:00,12.4,6.0,30.15,SSW,209,1.0,2.0,75,0.00,,---,0.00,VWS V14.00,2013-01-12 19:29:00,
2013-01-12 12:34:00,12.9,6.5,30.15,SSW,209,1.0,2.0,75,0.00,,---,0.00,VWS V14.00,2013-01-12 19:34:00,
2013-01-12 12:39:00,13.5,6.8,30.15,SSE,154,2.0,2.0,74,0.00,,---,0.00,VWS V14.00,2013-01-12 19:39:00,
2013-01-12 12:44:00,13.8,7.1,30.13,ESE,123,0.0,2.0,74,0.00,,---,0.00,VWS V14.00,2013-01-12 19:44:00,
2013-01-12 12:54:00,14.8,8.0,30.13,SSE,162,0.0,2.0,74,0.00,,---,0.00,VWS V14.00,2013-01-12 19:54:00,
2013-01-12 12:59:00,14.9,7.8,30.11,SSE,155,0.0,1.0,73,0.00,,---,0.00,VWS V14.00,2013-01-12 19:59:00,
2013-01-12 13:04:00,15.2,8.1,30.11,SSE,158,0.0,1.0,73,0.00,,---,0.00,VWS V14.00,2013-01-12 20:04:00,
2013-01-12 13:14:00,16.1,8.7,30.11,SSE,158,0.0,0.0,72,0.00,,---,0.00,VWS V14.00,2013-01-12 20:14:00,
2013-01-12 13:19:00,16.4,8.7,30.11,South,184,0.0,1.0,71,0.00,,---,0.00,VWS V14.00,2013-01-12 20:19:00,
2013-01-12 13:24:00,17.2,9.4,30.11,SSE,154,1.0,3.0,71,0.00,,---,0.00,VWS V14.00,2013-01-12 20:24:00,
2013-01-12 13:29:00,15.9,7.2,30.11,SE,136,0.0,1.0,68,0.00,,---,0.00,VWS V14.00,2013-01-12 20:29:00,
2013-01-12 13:34:00,15.2,5.9,30.11,NNE,17,0.0,1.0,66,0.00,,---,0.00,VWS V14.00,2013-01-12 20:34:00,
2013-01-12 13:39:00,14.9,5.6,30.11,ESE,120,0.0,1.0,66,0.00,,---,0.00,VWS V14.00,2013-01-12 20:39:00,
2013-01-12 13:44:00,14.9,5.3,30.11,NE,35,0.0,1.0,65,0.00,,---,0.00,VWS V14.00,2013-01-12 20:44:00,
2013-01-12 13:49:00,15.6,6.3,30.11,SE,145,0.0,3.0,66,0.00,,---,0.00,VWS V14.00,2013-01-12 20:49:00,
2013-01-12 13:59:00,16.9,7.2,30.09,SE,137,1.0,3.0,65,0.00,,---,0.00,VWS V14.00,2013-01-12 20:59:00,
2013-01-12 14:09:00,16.7,5.6,30.09,NNE,32,0.0,2.0,61,0.00,,---,0.00,VWS V14.00,2013-01-12 21:09:00,
2013-01-12 14:14:00,15.6,4.6,30.11,NNE,18,0.0,2.0,61,0.00,,---,0.00,VWS V14.00,2013-01-12 21:14:00,
2013-01-12 14:24:00,14.4,3.4,30.11,NNE,27,1.0,3.0,61,0.00,,---,0.00,VWS V14.00,2013-01-12 21:24:00,
2013-01-12 14:29:00,14.0,3.0,30.14,NNE,13,0.0,3.0,61,0.00,,---,0.00,VWS V14.00,2013-01-12 21:29:00,
2013-01-12 14:34:00,13.8,2.8,30.14,NNE,18,0.0,1.0,61,0.00,,---,0.00,VWS V14.00,2013-01-12 21:34:00,
2013-01-12 14:39:00,13.5,2.2,30.14,North,353,1.0,3.0,60,0.00,,---,0.00,VWS V14.00,2013-01-12 21:39:00,
2013-01-12 14:44:00,13.1,1.5,30.16,NNE,20,0.0,3.0,59,0.00,,---,0.00,VWS V14.00,2013-01-12 21:44:00,
2013-01-12 14:49:00,12.9,1.3,30.16,North,10,0.0,2.0,59,0.00,,---,0.00,VWS V14.00,2013-01-12 21:49:00,
2013-01-12 14:54:00,12.8,1.2,30.16,NNE,32,0.0,1.0,59,0.00,,---,0.00,VWS V14.00,2013-01-12 21:54:00,
2013-01-12 14:59:00,12.4,0.4,30.16,NNE,32,0.0,2.0,58,0.00,,---,0.00,VWS V14.00,2013-01-12 21:59:00,
2013-01-12 15:04:00,12.3,0.3,30.16,North,0,0.0,3.0,58,0.00,,---,0.00,VWS V14.00,2013-01-12 22:04:00,
2013-01-12 15:09:00,11.9,0.0,30.16,NNE,24,0.0,3.0,58,0.00,,---,0.00,VWS V14.00,2013-01-12 22:09:00,
2013-01-12 15:14:00,11.7,-0.2,30.18,NNE,13,2.0,3.0,58,0.00,,---,0.00,VWS V14.00,2013-01-12 22:14:00,
2013-01-12 15:19:00,11.7,0.2,30.18,North,6,1.0,3.0,59,0.00,,---,0.00,VWS V14.00,2013-01-12 22:19:00,
2013-01-12 15:24:00,11.6,-0.3,30.18,North,3,1.0,2.0,58,0.00,,---,0.00,VWS V14.00,2013-01-12 22:24:00,
2013-01-12 15:29:00,11.6,0.1,30.18,NNE,23,1.0,2.0,59,0.00,,---,0.00,VWS V14.00,2013-01-12 22:29:00,
2013-01-12 15:34:00,11.4,-0.5,30.18,ENE,59,0.0,2.0,58,0.00,,---,0.00,VWS V14.00,2013-01-12 22:34:00,
2013-01-12 15:39:00,11.2,-0.7,30.18,ENE,61,0.0,0.0,58,0.00,,---,0.00,VWS V14.00,2013-01-12 22:39:00,
2013-01-12 15:44:00,11.1,-0.8,30.20,NE,48,0.0,0.0,58,0.00,,---,0.00,VWS V14.00,2013-01-12 22:44:00,
2013-01-12 15:49:00,11.1,-0.8,30.20,NE,48,0.0,0.0,58,0.00,,---,0.00,VWS V14.00,2013-01-12 22:49:00,
2013-01-12 15:54:00,11.1,-0.8,30.20,NE,37,0.0,0.0,58,0.00,,---,0.00,VWS V14.00,2013-01-12 22:54:00,
2013-01-12 15:59:00,11.1,-0.8,30.21,NE,37,0.0,0.0,58,0.00,,---,0.00,VWS V14.00,2013-01-12 22:59:00,
2013-01-12 16:04:00,10.9,-1.0,30.21,North,8,0.0,1.0,58,0.00,,---,0.00,VWS V14.00,2013-01-12 23:04:00,
2013-01-12 16:09:00,10.7,-1.2,30.21,North,8,0.0,0.0,58,0.00,,---,0.00,VWS V14.00,2013-01-12 23:09:00,
2013-01-12 16:14:00,10.7,-1.2,30.22,North,8,0.0,0.0,58,0.00,,---,0.00,VWS V14.00,2013-01-12 23:14:00,
2013-01-12 16:19:00,10.5,-1.3,30.22,North,11,0.0,0.0,58,0.00,,---,0.00,VWS V14.00,2013-01-12 23:19:00,
2013-01-12 16:29:00,10.2,-2.0,30.22,NE,42,0.0,0.0,57,0.00,,---,0.00,VWS V14.00,2013-01-12 23:29:00,
2013-01-12 16:34:00,10.2,-2.0,30.22,NE,47,0.0,1.0,57,0.00,,---,0.00,VWS V14.00,2013-01-12 23:34:00,
2013-01-12 16:44:00,9.9,-1.9,30.23,North,356,0.0,0.0,58,0.00,,---,0.00,VWS V14.00,2013-01-12 23:44:00,
2013-01-12 16:49:00,9.9,-1.5,30.23,North,357,0.0,0.0,59,0.00,,---,0.00,VWS V14.00,2013-01-12 23:49:00,
2013-01-12 16:54:00,9.9,-1.5,30.23,North,357,0.0,0.0,59,0.00,,---,0.00,VWS V14.00,2013-01-12 23:54:00,
2013-01-12 16:59:00,9.7,-1.7,30.23,North,357,0.0,0.0,59,0.00,,---,0.00,VWS V14.00,2013-01-12 23:59:00,
2013-01-12 17:04:00,9.7,-1.7,30.23,NE,49,0.0,0.0,59,0.00,,---,0.00,VWS V14.00,2013-01-13 00:04:00,
2013-01-12 17:09:00,9.5,-1.9,30.23,NE,49,0.0,0.0,59,0.00,,---,0.00,VWS V14.00,2013-01-13 00:09:00,
2013-01-12 17:14:00,9.3,-2.1,30.25,NNE,18,0.0,0.0,59,0.00,,---,0.00,VWS V14.00,2013-01-13 00:14:00,
2013-01-12 17:19:00,9.2,-2.2,30.25,NNE,18,0.0,0.0,59,0.00,,---,0.00,VWS V14.00,2013-01-13 00:19:00,
2013-01-12 17:24:00,9.2,-1.9,30.25,NE,44,0.0,0.0,60,0.00,,---,0.00,VWS V14.00,2013-01-13 00:24:00,
2013-01-12 17:29:00,9.2,-1.9,30.25,NE,45,0.0,0.0,60,0.00,,---,0.00,VWS V14.00,2013-01-13 00:29:00,
2013-01-12 17:34:00,9.2,-1.9,30.25,North,1,0.0,0.0,60,0.00,,---,0.00,VWS V14.00,2013-01-13 00:34:00,
2013-01-12 17:44:00,9.2,-1.9,30.26,North,1,0.0,0.0,60,0.00,,---,0.00,VWS V14.00,2013-01-13 00:44:00,
2013-01-12 17:49:00,9.3,-1.4,30.26,NE,45,0.0,0.0,61,0.00,,---,0.00,VWS V14.00,2013-01-13 00:49:00,
2013-01-12 17:54:00,9.2,-1.5,30.26,NE,47,0.0,0.0,61,0.00,,---,0.00,VWS V14.00,2013-01-13 00:54:00,
2013-01-12 17:59:00,9.3,-1.4,30.26,NE,47,0.0,0.0,61,0.00,,---,0.00,VWS V14.00,2013-01-13 00:59:00,
2013-01-12 18:04:00,9.3,-1.4,30.26,NE,44,0.0,0.0,61,0.00,,---,0.00,VWS V14.00,2013-01-13 01:04:00,
2013-01-12 18:14:00,9.3,-1.4,30.27,East,79,0.0,0.0,61,0.00,,---,0.00,VWS V14.00,2013-01-13 01:14:00,
2013-01-12 18:19:00,9.2,-1.5,30.27,SE,128,0.0,0.0,61,0.00,,---,0.00,VWS V14.00,2013-01-13 01:19:00,
2013-01-12 18:24:00,9.2,-1.5,30.27,SE,130,0.0,0.0,61,0.00,,---,0.00,VWS V14.00,2013-01-13 01:24:00,
2013-01-12 18:29:00,9.2,-1.5,30.28,ESE,123,0.0,1.0,61,0.00,,---,0.00,VWS V14.00,2013-01-13 01:29:00,
2013-01-12 18:34:00,9.2,-1.2,30.28,SE,130,0.0,2.0,62,0.00,,---,0.00,VWS V14.00,2013-01-13 01:34:00,
2013-01-12 18:39:00,9.2,-1.2,30.28,SE,130,0.0,0.0,62,0.00,,---,0.00,VWS V14.00,2013-01-13 01:39:00,
2013-01-12 18:44:00,9.0,-1.4,30.28,SE,127,0.0,0.0,62,0.00,,---,0.00,VWS V14.00,2013-01-13 01:44:00,
2013-01-12 18:49:00,9.0,-1.4,30.28,SE,127,0.0,0.0,62,0.00,,---,0.00,VWS V14.00,2013-01-13 01:49:00,
2013-01-12 18:54:00,9.0,-1.4,30.28,SE,127,0.0,0.0,62,0.00,,---,0.00,VWS V14.00,2013-01-13 01:54:00,
2013-01-12 19:04:00,9.0,-1.4,30.28,SE,127,0.0,0.0,62,0.00,,---,0.00,VWS V14.00,2013-01-13 02:04:00,
2013-01-12 19:09:00,9.0,-1.4,30.28,ESE,121,0.0,0.0,62,0.00,,---,0.00,VWS V14.00,2013-01-13 02:09:00,
2013-01-12 19:14:00,8.8,-1.5,30.27,ESE,121,0.0,0.0,62,0.00,,---,0.00,VWS V14.00,2013-01-13 02:14:00,
2013-01-12 19:19:00,8.8,-1.5,30.27,ESE,121,0.0,0.0,62,0.00,,---,0.00,VWS V14.00,2013-01-13 02:19:00,
2013-01-12 19:29:00,8.6,-1.7,30.27,ESE,123,0.0,0.0,62,0.00,,---,0.00,VWS V14.00,2013-01-13 02:29:00,
2013-01-12 19:34:00,8.3,-2.0,30.27,ESE,123,0.0,0.0,62,0.00,,---,0.00,VWS V14.00,2013-01-13 02:34:00,
2013-01-12 19:39:00,8.1,-2.2,30.27,ESE,123,0.0,0.0,62,0.00,,---,0.00,VWS V14.00,2013-01-13 02:39:00,
2013-01-12 19:49:00,7.7,-2.6,30.27,ESE,123,0.0,0.0,62,0.00,,---,0.00,VWS V14.00,2013-01-13 02:49:00,
2013-01-12 19:54:00,7.6,-2.7,30.27,ESE,123,0.0,0.0,62,0.00,,---,0.00,VWS V14.00,2013-01-13 02:54:00,
2013-01-12 19:59:00,7.4,-2.9,30.28,ESE,123,0.0,0.0,62,0.00,,---,0.00,VWS V14.00,2013-01-13 02:59:00,
2013-01-12 20:04:00,7.2,-3.1,30.28,ESE,123,0.0,0.0,62,0.00,,---,0.00,VWS V14.00,2013-01-13 03:04:00,
2013-01-12 20:09:00,6.9,-3.3,30.28,ESE,123,0.0,0.0,62,0.00,,---,0.00,VWS V14.00,2013-01-13 03:09:00,
2013-01-12 20:14:00,6.7,-3.5,30.27,ESE,123,0.0,0.0,62,0.00,,---,0.00,VWS V14.00,2013-01-13 03:14:00,
2013-01-12 20:19:00,6.1,-4.1,30.27,ESE,123,0.0,0.0,62,0.00,,---,0.00,VWS V14.00,2013-01-13 03:19:00,
2013-01-12 20:24:00,5.6,-4.6,30.27,ESE,123,0.0,0.0,62,0.00,,---,0.00,VWS V14.00,2013-01-13 03:24:00,
2013-01-12 20:29:00,5.4,-4.8,30.28,ESE,123,0.0,0.0,62,0.00,,---,0.00,VWS V14.00,2013-01-13 03:29:00,
2013-01-12 20:34:00,5.2,-5.0,30.28,ESE,123,0.0,0.0,62,0.00,,---,0.00,VWS V14.00,2013-01-13 03:34:00,
2013-01-12 20:39:00,5.0,-4.8,30.28,ESE,123,0.0,0.0,63,0.00,,---,0.00,VWS V14.00,2013-01-13 03:39:00,
2013-01-12 20:44:00,4.8,-5.0,30.28,ESE,123,0.0,0.0,63,0.00,,---,0.00,VWS V14.00,2013-01-13 03:44:00,
2013-01-12 20:49:00,4.7,-5.1,30.28,ESE,123,0.0,0.0,63,0.00,,---,0.00,VWS V14.00,2013-01-13 03:49:00,
2013-01-12 20:54:00,4.5,-5.3,30.28,ESE,123,0.0,0.0,63,0.00,,---,0.00,VWS V14.00,2013-01-13 03:54:00,
2013-01-12 20:59:00,4.3,-5.5,30.28,ESE,123,0.0,0.0,63,0.00,,---,0.00,VWS V14.00,2013-01-13 03:59:00,
2013-01-12 21:04:00,4.1,-5.7,30.28,ESE,123,0.0,0.0,63,0.00,,---,0.00,VWS V14.00,2013-01-13 04:04:00,
2013-01-12 21:09:00,3.7,-6.1,30.28,ESE,123,0.0,0.0,63,0.00,,---,0.00,VWS V14.00,2013-01-13 04:09:00,
2013-01-12 21:14:00,3.5,-6.3,30.27,ESE,123,0.0,0.0,63,0.00,,---,0.00,VWS V14.00,2013-01-13 04:14:00,
2013-01-12 21:19:00,3.0,-6.7,30.27,ESE,123,0.0,0.0,63,0.00,,---,0.00,VWS V14.00,2013-01-13 04:19:00,
2013-01-12 21:24:00,2.6,-7.1,30.27,ESE,123,0.0,0.0,63,0.00,,---,0.00,VWS V14.00,2013-01-13 04:24:00,
2013-01-12 21:29:00,2.6,-7.1,30.28,ESE,123,0.0,0.0,63,0.00,,---,0.00,VWS V14.00,2013-01-13 04:29:00,
2013-01-12 21:34:00,2.4,-7.3,30.28,ESE,123,0.0,0.0,63,0.00,,---,0.00,VWS V14.00,2013-01-13 04:34:00,
2013-01-12 21:39:00,2.2,-7.5,30.28,ESE,123,0.0,0.0,63,0.00,,---,0.00,VWS V14.00,2013-01-13 04:39:00,
2013-01-12 21:44:00,2.0,-7.4,30.29,ESE,123,0.0,0.0,64,0.00,,---,0.00,VWS V14.00,2013-01-13 04:44:00,
2013-01-12 21:49:00,2.0,-7.4,30.29,ESE,123,0.0,0.0,64,0.00,,---,0.00,VWS V14.00,2013-01-13 04:49:00,
2013-01-12 21:54:00,2.0,-7.4,30.29,ESE,123,0.0,0.0,64,0.00,,---,0.00,VWS V14.00,2013-01-13 04:54:00,
2013-01-12 21:59:00,2.0,-7.4,30.29,ESE,123,0.0,0.0,64,0.00,,---,0.00,VWS V14.00,2013-01-13 04:59:00,
2013-01-12 22:04:00,2.2,-6.8,30.29,ESE,123,0.0,0.0,65,0.00,,---,0.00,VWS V14.00,2013-01-13 05:04:00,
2013-01-12 22:09:00,2.2,-6.8,30.29,ESE,123,0.0,0.0,65,0.00,,---,0.00,VWS V14.00,2013-01-13 05:09:00,
2013-01-12 22:14:00,2.0,-7.0,30.29,ESE,123,0.0,0.0,65,0.00,,---,0.00,VWS V14.00,2013-01-13 05:14:00,
2013-01-12 22:19:00,2.0,-7.0,30.29,ESE,123,0.0,0.0,65,0.00,,---,0.00,VWS V14.00,2013-01-13 05:19:00,
2013-01-12 22:24:00,2.0,-7.0,30.29,ESE,123,0.0,0.0,65,0.00,,---,0.00,VWS V14.00,2013-01-13 05:24:00,
2013-01-12 22:29:00,2.0,-7.0,30.29,ESE,123,0.0,0.0,65,0.00,,---,0.00,VWS V14.00,2013-01-13 05:29:00,
2013-01-12 22:34:00,1.8,-7.2,30.29,ESE,123,0.0,0.0,65,0.00,,---,0.00,VWS V14.00,2013-01-13 05:34:00,
2013-01-12 22:44:00,1.7,-7.3,30.29,ESE,123,0.0,0.0,65,0.00,,---,0.00,VWS V14.00,2013-01-13 05:44:00,
2013-01-12 22:49:00,1.5,-7.5,30.29,ESE,123,0.0,0.0,65,0.00,,---,0.00,VWS V14.00,2013-01-13 05:49:00,
2013-01-12 22:54:00,1.3,-7.7,30.29,ESE,123,0.0,0.0,65,0.00,,---,0.00,VWS V14.00,2013-01-13 05:54:00,
2013-01-12 22:59:00,1.1,-7.9,30.29,ESE,123,0.0,0.0,65,0.00,,---,0.00,VWS V14.00,2013-01-13 05:59:00,
2013-01-12 23:04:00,0.9,-8.1,30.29,ESE,123,0.0,0.0,65,0.00,,---,0.00,VWS V14.00,2013-01-13 06:04:00,
2013-01-12 23:09:00,0.7,-8.3,30.29,ESE,123,0.0,0.0,65,0.00,,---,0.00,VWS V14.00,2013-01-13 06:09:00,
2013-01-12 23:14:00,0.5,-8.5,30.28,ESE,123,0.0,0.0,65,0.00,,---,0.00,VWS V14.00,2013-01-13 06:14:00,
2013-01-12 23:19:00,0.3,-8.7,30.28,ESE,123,0.0,0.0,65,0.00,,---,0.00,VWS V14.00,2013-01-13 06:19:00,
2013-01-12 23:24:00,0.1,-8.9,30.28,ESE,123,0.0,0.0,65,0.00,,---,0.00,VWS V14.00,2013-01-13 06:24:00,
2013-01-12 23:29:00,0.1,-8.6,30.29,ESE,123,0.0,0.0,66,0.00,,---,0.00,VWS V14.00,2013-01-13 06:29:00,
2013-01-12 23:34:00,0.1,-8.6,30.29,ESE,123,0.0,0.0,66,0.00,,---,0.00,VWS V14.00,2013-01-13 06:34:00,
2013-01-12 23:39:00,-0.2,-8.8,30.29,ESE,123,0.0,0.0,66,0.00,,---,0.00,VWS V14.00,2013-01-13 06:39:00,
2013-01-12 23:49:00,-0.4,-9.0,30.29,ESE,123,0.0,0.0,66,0.00,,---,0.00,VWS V14.00,2013-01-13 06:49:00,
2013-01-12 23:54:00,-0.6,-9.2,30.29,ESE,123,0.0,0.0,66,0.00,,---,0.00,VWS V14.00,2013-01-13 06:54:00,
2013-01-12 23:59:00,-0.6,-9.2,30.29,ESE,123,0.0,0.0,66,0.00,,---,0.00,VWS V14.00,2013-01-13 06:59:00,